Terminal Aerodrome Forecast
Issued by NWS

Home | Current Version | Previous Version | Text Only | Print | Product List | Glossary On
Versions: 1 2 3 4 5 6 7 8 9 10 11 12 13 14 15 16 17 18 19 20 21 22 23 24 25 26
000
FTUS45 KLKN 202322
TAFTPH
TAF
KTPH 202322Z 2100/2124 19010G20KT P6SM VCTS BKN090CB BKN250
     FM210200 21008KT P6SM SCT070 BKN090 BKN200
     FM210600 35006KT P6SM VCSH BKN100 BKN200
     FM211200 35006KT 6SM -RA BR OVC070
     FM212000 17010G20KT P6SM -SHRA OVC060=

USA.gov is the U.S. government's official web portal to all federal, state and local government web resources and services.